Time;durP1;ratioP1;P1;durP2;ratioP2;P2;SDS_P1;SDS_P2;PMS_P1;PMS_P2;Temp;Humidity;BMP_temperature;BMP_pressure;BME280_temperature;BME280_humidity;BME280_pressure;Samples;Min_cycle;Max_cycle;Signal;HPM_P1;HPM_P2
2023/03/15 00:01:46;;;;;;;9.47;5.20;;;;;;;;;;6248973;28;20028;-74
2023/03/15 00:04:47;;;;;;;8.77;5.33;;;;;;;;;;6243097;28;20327;-73
2023/03/15 00:07:47;;;;;;;8.23;4.87;;;;;;;;;;6249317;28;20102;-73
2023/03/15 00:10:47;;;;;;;3.63;2.47;;;;;;;;;;6248919;28;20021;-73
2023/03/15 00:13:47;;;;;;;4.33;2.40;;;;;;;;;;6254570;28;20104;-73
2023/03/15 00:16:47;;;;;;;2.20;1.53;;;;;;;;;;6249757;28;20014;-73
2023/03/15 00:19:48;;;;;;;2.60;1.90;;;;;;;;;;6251409;28;20013;-73
2023/03/15 00:22:48;;;;;;;2.63;1.60;;;;;;;;;;6256887;28;20025;-73
2023/03/15 00:25:49;;;;;;;5.00;2.30;;;;;;;;;;6248498;28;20014;-73
2023/03/15 00:28:50;;;;;;;3.53;1.98;;;;;;;;;;6250968;28;20526;-73
2023/03/15 00:31:50;;;;;;;2.70;2.07;;;;;;;;;;6248188;28;20067;-73
2023/03/15 00:34:53;;;;;;;3.23;1.90;;;;;;;;;;6249096;28;20356;-73
2023/03/15 00:37:54;;;;;;;3.58;1.65;;;;;;;;;;6248340;28;20059;-73
2023/03/15 00:40:54;;;;;;;4.60;2.10;;;;;;;;;;6244019;28;20010;-74
2023/03/15 00:43:54;;;;;;;2.53;1.80;;;;;;;;;;6247326;28;20490;-73
2023/03/15 00:46:54;;;;;;;3.45;1.60;;;;;;;;;;6248996;28;20029;-73
2023/03/15 00:49:55;;;;;;;1.60;1.50;;;;;;;;;;6250165;28;20105;-73
2023/03/15 00:52:55;;;;;;;1.80;1.70;;;;;;;;;;6247834;28;20045;-73
2023/03/15 00:55:55;;;;;;;2.10;1.70;;;;;;;;;;6247991;28;20009;-73
2023/03/15 00:58:56;;;;;;;1.80;1.70;;;;;;;;;;6247564;28;20044;-73
2023/03/15 01:01:56;;;;;;;2.93;1.93;;;;;;;;;;6247813;28;20064;-73
2023/03/15 01:04:57;;;;;;;3.20;2.37;;;;;;;;;;6247154;28;20017;-73
2023/03/15 01:07:57;;;;;;;3.33;2.13;;;;;;;;;;6249145;28;20017;-73
2023/03/15 01:11:02;;;;;;;5.37;3.10;;;;;;;;;;6247840;28;20014;-73
2023/03/15 01:14:04;;;;;;;2.00;1.55;;;;;;;;;;6247121;28;20045;-73
2023/03/15 01:17:05;;;;;;;2.88;1.90;;;;;;;;;;6246982;28;20005;-73
2023/03/15 01:20:06;;;;;;;3.93;2.80;;;;;;;;;;6247395;28;20005;-73
2023/03/15 01:23:06;;;;;;;3.80;2.20;;;;;;;;;;6244577;28;20045;-73
2023/03/15 01:26:09;;;;;;;3.23;1.83;;;;;;;;;;6247459;28;20460;-73
2023/03/15 01:29:10;;;;;;;3.55;2.00;;;;;;;;;;6242554;28;20510;-73
2023/03/15 01:32:11;;;;;;;4.25;2.15;;;;;;;;;;6247532;28;20412;-73
2023/03/15 01:35:11;;;;;;;4.33;1.83;;;;;;;;;;6246535;28;20025;-73
2023/03/15 01:38:12;;;;;;;3.27;1.80;;;;;;;;;;6247103;28;20023;-73
2023/03/15 01:41:13;;;;;;;5.27;2.27;;;;;;;;;;6212135;28;20021;-73
2023/03/15 01:44:14;;;;;;;3.53;1.80;;;;;;;;;;6243308;28;20113;-73
2023/03/15 01:47:14;;;;;;;5.00;1.88;;;;;;;;;;6247138;28;20260;-73
2023/03/15 01:50:14;;;;;;;5.90;3.13;;;;;;;;;;6235779;28;20047;-73
2023/03/15 01:53:15;;;;;;;5.83;2.63;;;;;;;;;;6251258;28;20044;-73
2023/03/15 01:56:15;;;;;;;4.20;2.40;;;;;;;;;;6246334;28;20458;-73
2023/03/15 01:59:20;;;;;;;4.13;2.43;;;;;;;;;;6251509;28;20048;-73
2023/03/15 02:02:23;;;;;;;6.32;2.90;;;;;;;;;;6247467;28;20013;-79
2023/03/15 02:05:25;;;;;;;7.78;2.80;;;;;;;;;;6246636;28;20018;-79
2023/03/15 02:08:27;;;;;;;4.43;2.97;;;;;;;;;;6242091;28;20029;-79
2023/03/15 02:11:28;;;;;;;6.43;2.80;;;;;;;;;;6226212;28;20025;-79
2023/03/15 02:14:31;;;;;;;5.10;3.00;;;;;;;;;;6241844;28;20014;-80
2023/03/15 02:17:35;;;;;;;8.05;3.63;;;;;;;;;;6246180;28;20116;-79
2023/03/15 02:20:50;;;;;;;5.60;2.17;;;;;;;;;;6241661;28;20039;-78
2023/03/15 02:24:04;;;;;;;4.30;2.80;;;;;;;;;;6243643;28;20438;-79
2023/03/15 02:27:04;;;;;;;5.45;2.50;;;;;;;;;;6248284;28;20109;-79
2023/03/15 02:30:05;;;;;;;4.27;2.17;;;;;;;;;;6234297;28;20021;-79
2023/03/15 02:33:29;;;;;;;6.33;2.90;;;;;;;;;;6245672;28;20056;-78
2023/03/15 02:36:30;;;;;;;8.52;3.03;;;;;;;;;;6229985;28;20037;-79
2023/03/15 02:39:30;;;;;;;;;;;;;;;;;;6246052;28;20094;-80
2023/03/15 02:42:31;;;;;;;10.77;2.45;;;;;;;;;;6244275;28;19917;-79
2023/03/15 02:45:32;;;;;;;11.27;3.57;;;;;;;;;;6245836;28;20375;-79
2023/03/15 02:48:33;;;;;;;5.93;2.83;;;;;;;;;;6245414;28;20119;-78
2023/03/15 02:51:33;;;;;;;7.68;3.55;;;;;;;;;;6247240;28;20503;-79
2023/03/15 02:54:35;;;;;;;5.60;2.97;;;;;;;;;;6242371;28;20026;-79
2023/03/15 02:57:35;;;;;;;9.07;2.65;;;;;;;;;;6249471;28;20025;-78
2023/03/15 03:00:35;;;;;;;10.00;3.40;;;;;;;;;;6245124;28;20140;-78
2023/03/15 03:03:36;;;;;;;15.10;4.10;;;;;;;;;;6245604;28;20085;-79
2023/03/15 03:06:36;;;;;;;9.55;3.20;;;;;;;;;;6245303;28;20108;-78
2023/03/15 03:09:36;;;;;;;7.17;3.10;;;;;;;;;;6246010;28;20013;-79
2023/03/15 03:12:36;;;;;;;10.87;5.70;;;;;;;;;;6243841;28;20029;-79
2023/03/15 03:15:37;;;;;;;5.67;3.03;;;;;;;;;;6240232;28;20017;-78
2023/03/15 03:18:37;;;;;;;8.20;3.00;;;;;;;;;;6249980;28;20033;-78
2023/03/15 03:21:37;;;;;;;6.50;3.27;;;;;;;;;;6241841;28;20014;-78
2023/03/15 03:24:37;;;;;;;11.20;3.47;;;;;;;;;;6247014;28;20013;-78
2023/03/15 03:27:38;;;;;;;8.90;2.40;;;;;;;;;;6245020;28;20167;-79
2023/03/15 03:30:39;;;;;;;10.77;3.60;;;;;;;;;;6243911;28;20484;-78
2023/03/15 03:33:40;;;;;;;12.82;3.22;;;;;;;;;;6246509;28;20024;-79
2023/03/15 03:36:40;;;;;;;7.57;3.58;;;;;;;;;;6245035;28;20484;-79
2023/03/15 03:39:40;;;;;;;10.53;3.57;;;;;;;;;;6244750;28;20024;-78
2023/03/15 03:42:41;;;;;;;7.17;2.40;;;;;;;;;;6244600;28;20005;-78
2023/03/15 03:45:41;;;;;;;5.10;2.53;;;;;;;;;;6244561;28;20032;-78
2023/03/15 03:48:41;;;;;;;4.63;2.70;;;;;;;;;;6244655;28;20018;-79
2023/03/15 03:51:41;;;;;;;8.67;3.77;;;;;;;;;;6241988;28;20069;-78
2023/03/15 03:54:41;;;;;;;11.38;3.05;;;;;;;;;;6244420;28;20415;-79
2023/03/15 03:57:43;;;;;;;15.00;4.53;;;;;;;;;;6243782;28;20013;-79
2023/03/15 04:00:43;;;;;;;8.98;3.78;;;;;;;;;;6243811;28;20014;-80
2023/03/15 04:03:43;;;;;;;7.90;2.78;;;;;;;;;;6240388;28;20021;-80
2023/03/15 04:06:44;;;;;;;6.73;3.07;;;;;;;;;;6235164;28;20151;-80
2023/03/15 04:09:44;;;;;;;5.50;2.97;;;;;;;;;;6225861;28;20384;-80
2023/03/15 04:12:44;;;;;;;8.73;3.40;;;;;;;;;;6228080;28;20100;-79
2023/03/15 04:15:45;;;;;;;7.97;2.90;;;;;;;;;;6242020;28;20022;-80
2023/03/15 04:18:46;;;;;;;6.97;2.77;;;;;;;;;;6244451;28;20049;-79
2023/03/15 04:21:46;;;;;;;9.00;2.83;;;;;;;;;;6235671;28;20029;-77
2023/03/15 04:24:49;;;;;;;10.43;3.03;;;;;;;;;;6230430;28;20525;-78
2023/03/15 04:27:57;;;;;;;8.73;3.03;;;;;;;;;;6226949;28;20039;-77
2023/03/15 04:30:57;;;;;;;10.32;3.08;;;;;;;;;;6219068;28;20464;-79
2023/03/15 04:33:58;;;;;;;11.87;4.50;;;;;;;;;;6226018;28;20036;-79
2023/03/15 04:36:58;;;;;;;17.33;6.93;;;;;;;;;;6226258;28;20113;-78
2023/03/15 04:39:58;;;;;;;19.70;9.48;;;;;;;;;;6226007;28;20048;-78
2023/03/15 04:42:58;;;;;;;9.40;3.53;;;;;;;;;;6222632;28;20025;-79
2023/03/15 04:46:00;;;;;;;15.67;5.33;;;;;;;;;;6245735;28;20026;-78
2023/03/15 04:49:02;;;;;;;10.93;4.25;;;;;;;;;;6249573;28;20029;-79
2023/03/15 04:52:02;;;;;;;;;;;;;;;;;;6248428;28;20128;-77
2023/03/15 04:55:02;;;;;;;10.65;3.88;;;;;;;;;;6248568;28;19917;-79
2023/03/15 04:58:02;;;;;;;9.37;3.73;;;;;;;;;;6243277;28;20018;-78
2023/03/15 05:01:05;;;;;;;8.33;3.23;;;;;;;;;;6244471;28;20087;-79
2023/03/15 05:04:05;;;;;;;10.43;4.63;;;;;;;;;;6237473;28;20025;-79
2023/03/15 05:07:06;;;;;;;11.10;3.80;;;;;;;;;;6243688;28;20536;-79
2023/03/15 05:10:07;;;;;;;8.55;3.80;;;;;;;;;;6245553;28;20142;-78
2023/03/15 05:13:07;;;;;;;7.03;3.60;;;;;;;;;;6243041;28;20112;-78
2023/03/15 05:16:07;;;;;;;17.55;7.13;;;;;;;;;;6247577;28;20034;-78
2023/03/15 05:19:07;;;;;;;24.73;8.97;;;;;;;;;;6245511;28;20019;-77
2023/03/15 05:22:08;;;;;;;20.73;6.87;;;;;;;;;;6247574;28;20100;-78
2023/03/15 05:25:09;;;;;;;26.40;10.37;;;;;;;;;;6241199;28;20100;-78
2023/03/15 05:28:09;;;;;;;38.10;13.55;;;;;;;;;;6245015;28;20025;-78
2023/03/15 05:31:10;;;;;;;39.17;12.80;;;;;;;;;;6246180;28;20056;-79
2023/03/15 05:34:11;;;;;;;34.37;11.13;;;;;;;;;;6252108;28;20566;-79
2023/03/15 05:37:11;;;;;;;27.57;8.90;;;;;;;;;;6251039;28;20076;-79
2023/03/15 05:40:11;;;;;;;24.57;9.17;;;;;;;;;;6247477;28;20052;-79
2023/03/15 05:43:12;;;;;;;30.00;11.53;;;;;;;;;;6240183;28;20096;-79
2023/03/15 05:46:13;;;;;;;18.30;7.43;;;;;;;;;;6240873;28;20402;-79
2023/03/15 05:49:13;;;;;;;17.00;5.50;;;;;;;;;;6219760;28;20037;-79
2023/03/15 05:52:14;;;;;;;10.77;4.37;;;;;;;;;;6245181;28;20121;-79
2023/03/15 05:55:14;;;;;;;11.60;3.93;;;;;;;;;;6244486;28;20559;-78
2023/03/15 05:58:14;;;;;;;13.00;3.63;;;;;;;;;;6244400;28;20022;-79
2023/03/15 06:01:16;;;;;;;10.10;3.47;;;;;;;;;;6242889;28;20524;-79
2023/03/15 06:04:16;;;;;;;11.70;3.72;;;;;;;;;;6241242;28;20041;-79
2023/03/15 06:07:16;;;;;;;10.77;3.97;;;;;;;;;;6244950;28;20369;-78
2023/03/15 06:10:16;;;;;;;10.03;4.00;;;;;;;;;;6239688;28;20025;-79
2023/03/15 06:13:17;;;;;;;16.03;6.27;;;;;;;;;;6243775;28;20034;-79
2023/03/15 06:16:17;;;;;;;14.50;5.10;;;;;;;;;;6242751;28;20029;-79
2023/03/15 06:19:20;;;;;;;12.33;5.27;;;;;;;;;;6238265;28;20063;-79
2023/03/15 06:22:20;;;;;;;9.30;4.47;;;;;;;;;;6243330;28;20539;-79
2023/03/15 06:25:20;;;;;;;22.97;5.27;;;;;;;;;;6232482;28;20033;-79
2023/03/15 06:28:20;;;;;;;10.83;4.30;;;;;;;;;;6233526;28;20099;-79
2023/03/15 06:31:20;;;;;;;26.50;5.47;;;;;;;;;;6242096;28;20065;-79
2023/03/15 06:34:21;;;;;;;8.20;3.50;;;;;;;;;;6234121;28;20033;-79
2023/03/15 06:37:21;;;;;;;29.53;4.93;;;;;;;;;;6233709;28;20092;-79
2023/03/15 06:40:22;;;;;;;11.27;4.20;;;;;;;;;;6228691;28;20030;-78
2023/03/15 06:43:22;;;;;;;12.73;4.10;;;;;;;;;;6239082;28;20021;-79
2023/03/15 06:46:22;;;;;;;11.40;3.67;;;;;;;;;;6230099;28;20032;-79
2023/03/15 06:49:22;;;;;;;12.30;3.78;;;;;;;;;;6229749;28;20018;-79
2023/03/15 06:52:23;;;;;;;9.00;3.47;;;;;;;;;;6239277;28;20136;-79
2023/03/15 06:55:23;;;;;;;10.93;4.90;;;;;;;;;;6242438;28;20033;-79
2023/03/15 06:58:23;;;;;;;14.37;3.70;;;;;;;;;;6245644;28;20013;-79
2023/03/15 07:01:23;;;;;;;9.50;4.57;;;;;;;;;;6245125;28;20017;-79
2023/03/15 07:04:23;;;;;;;19.07;3.90;;;;;;;;;;6244404;28;20033;-79
2023/03/15 07:07:24;;;;;;;9.80;3.77;;;;;;;;;;6244481;28;20022;-79
2023/03/15 07:10:24;;;;;;;10.23;4.65;;;;;;;;;;6242289;28;20112;-79
2023/03/15 07:13:24;;;;;;;17.03;5.20;;;;;;;;;;6240548;28;20029;-79
2023/03/15 07:16:24;;;;;;;10.10;3.83;;;;;;;;;;6244711;28;20018;-79
2023/03/15 07:19:25;;;;;;;8.27;2.90;;;;;;;;;;6243413;28;20652;-79
2023/03/15 07:22:25;;;;;;;7.03;3.70;;;;;;;;;;6242651;28;20013;-79
2023/03/15 07:25:25;;;;;;;13.70;4.37;;;;;;;;;;6236675;28;20021;-80
2023/03/15 07:28:26;;;;;;;8.63;3.40;;;;;;;;;;6241992;28;20049;-79
2023/03/15 07:31:26;;;;;;;13.37;5.40;;;;;;;;;;6241575;28;20024;-80
2023/03/15 07:34:26;;;;;;;12.00;4.63;;;;;;;;;;6244645;28;20423;-80
2023/03/15 07:37:28;;;;;;;11.87;5.77;;;;;;;;;;6245629;28;20013;-78
2023/03/15 07:40:28;;;;;;;12.18;5.43;;;;;;;;;;6235110;28;20029;-78
2023/03/15 07:43:28;;;;;;;11.97;4.33;;;;;;;;;;6240717;28;20443;-80
2023/03/15 07:46:29;;;;;;;12.45;3.80;;;;;;;;;;6228388;28;20018;-80
2023/03/15 07:49:30;;;;;;;10.73;4.00;;;;;;;;;;6225630;28;20037;-79
2023/03/15 07:52:30;;;;;;;13.30;4.03;;;;;;;;;;6232240;28;20052;-79
2023/03/15 07:55:31;;;;;;;9.10;3.70;;;;;;;;;;6234337;28;20030;-79
2023/03/15 07:58:31;;;;;;;13.17;2.90;;;;;;;;;;6229193;28;20498;-79
2023/03/15 08:01:31;;;;;;;12.45;3.72;;;;;;;;;;6227721;28;20033;-80
2023/03/15 08:04:32;;;;;;;10.60;4.00;;;;;;;;;;6227273;28;20032;-79
2023/03/15 08:07:33;;;;;;;13.20;3.93;;;;;;;;;;6228465;28;20029;-80
2023/03/15 08:10:33;;;;;;;9.23;3.27;;;;;;;;;;6243394;28;20021;-79
2023/03/15 08:13:33;;;;;;;9.32;3.60;;;;;;;;;;6230506;28;20026;-80
2023/03/15 08:16:33;;;;;;;9.37;3.60;;;;;;;;;;6225844;28;20076;-76
2023/03/15 08:19:33;;;;;;;8.45;2.92;;;;;;;;;;6241754;28;20464;-80
2023/03/15 08:22:34;;;;;;;10.17;3.13;;;;;;;;;;6247361;28;20085;-80
2023/03/15 08:25:39;;;;;;;9.53;2.73;;;;;;;;;;6248391;28;20392;-80
2023/03/15 08:28:39;;;;;;;8.75;2.72;;;;;;;;;;6248198;28;20065;-80
2023/03/15 08:31:40;;;;;;;9.60;3.30;;;;;;;;;;6246167;28;20028;-81
2023/03/15 08:34:41;;;;;;;12.57;3.60;;;;;;;;;;6246447;28;20297;-80
2023/03/15 08:37:46;;;;;;;7.47;3.20;;;;;;;;;;6241689;28;20072;-80
2023/03/15 08:40:47;;;;;;;10.60;3.85;;;;;;;;;;6245429;28;20021;-80
2023/03/15 08:43:47;;;;;;;16.97;3.77;;;;;;;;;;6247120;28;20029;-77
2023/03/15 08:46:47;;;;;;;14.17;2.57;;;;;;;;;;6243672;28;20426;-79
2023/03/15 08:49:47;;;;;;;16.25;2.90;;;;;;;;;;6248630;28;20033;-80
2023/03/15 08:52:47;;;;;;;4.53;2.13;;;;;;;;;;6244952;28;20061;-79
2023/03/15 08:55:49;;;;;;;13.43;5.20;;;;;;;;;;6243407;28;20069;-80
2023/03/15 08:58:49;;;;;;;11.00;2.57;;;;;;;;;;6255199;28;20013;-81
2023/03/15 09:01:49;;;;;;;9.60;2.80;;;;;;;;;;6253376;28;20091;-80
2023/03/15 09:04:50;;;;;;;7.25;2.53;;;;;;;;;;6238119;28;20116;-80
2023/03/15 09:07:51;;;;;;;9.13;2.87;;;;;;;;;;6228350;28;20499;-80
2023/03/15 09:10:55;;;;;;;12.70;3.58;;;;;;;;;;6241472;28;20025;-80
2023/03/15 09:13:55;;;;;;;12.13;3.10;;;;;;;;;;6246953;28;20053;-80
2023/03/15 09:16:58;;;;;;;7.07;3.00;;;;;;;;;;6253632;28;20014;-81
2023/03/15 09:19:59;;;;;;;9.55;2.75;;;;;;;;;;6257289;28;20035;-80
2023/03/15 09:22:59;;;;;;;17.00;7.00;;;;;;;;;;6247296;28;20013;-80
2023/03/15 09:25:59;;;;;;;8.33;2.50;;;;;;;;;;6242233;28;20070;-81
2023/03/15 09:28:59;;;;;;;9.83;3.07;;;;;;;;;;6255436;28;20056;-80
2023/03/15 09:32:00;;;;;;;9.13;3.87;;;;;;;;;;6244996;28;20019;-80
2023/03/15 09:35:05;;;;;;;10.65;4.68;;;;;;;;;;6244748;28;20057;-81
2023/03/15 09:38:05;;;;;;;7.18;3.08;;;;;;;;;;6245204;28;20016;-81
2023/03/15 09:41:05;;;;;;;5.70;2.80;;;;;;;;;;6243971;28;20025;-79
2023/03/15 09:44:15;;;;;;;9.43;3.20;;;;;;;;;;6233444;28;20049;-81
2023/03/15 09:47:22;;;;;;;8.27;3.00;;;;;;;;;;6232690;28;20136;-80
2023/03/15 09:50:28;;;;;;;9.05;2.65;;;;;;;;;;6242008;28;20029;-80
2023/03/15 09:53:51;;;;;;;6.93;2.85;;;;;;;;;;6245988;28;20389;-81
2023/03/15 09:57:03;;;;;;;5.57;2.38;;;;;;;;;;6245988;28;20384;-81
2023/03/15 10:00:10;;;;;;;9.98;2.33;;;;;;;;;;6237718;28;20097;-81
2023/03/15 10:03:29;;;;;;;6.13;2.42;;;;;;;;;;6240470;28;20030;-81
2023/03/15 10:06:33;;;;;;;9.05;2.63;;;;;;;;;;6231065;28;20029;-81
2023/03/15 10:09:36;;;;;;;5.43;2.17;;;;;;;;;;6223245;28;20774;-80
2023/03/15 10:12:40;;;;;;;6.13;2.03;;;;;;;;;;6232306;28;20660;-81
2023/03/15 10:15:57;;;;;;;6.78;3.10;;;;;;;;;;6236404;28;20063;-81
2023/03/15 10:19:01;;;;;;;8.88;3.38;;;;;;;;;;6232339;28;20096;-81
2023/03/15 10:22:20;;;;;;;8.80;2.47;;;;;;;;;;6227352;28;20010;-81
2023/03/15 10:25:24;;;;;;;9.43;3.00;;;;;;;;;;6231888;28;20415;-81
2023/03/15 10:28:28;;;;;;;4.88;2.60;;;;;;;;;;6209713;28;20108;-81
2023/03/15 10:31:32;;;;;;;10.48;2.72;;;;;;;;;;6230363;28;20133;-81
2023/03/15 10:34:34;;;;;;;10.95;3.55;;;;;;;;;;6227970;28;20049;-80
2023/03/15 10:37:34;;;;;;;9.75;2.30;;;;;;;;;;6227967;28;20028;-81
2023/03/15 10:40:39;;;;;;;5.45;2.22;;;;;;;;;;6233462;28;20014;-81
2023/03/15 10:43:40;;;;;;;6.03;2.38;;;;;;;;;;6241449;28;20025;-80
2023/03/15 10:46:40;;;;;;;4.13;1.52;;;;;;;;;;6239891;28;20021;-81
2023/03/15 10:49:43;;;;;;;4.00;2.13;;;;;;;;;;6227883;28;20036;-81
2023/03/15 10:52:44;;;;;;;3.45;1.08;;;;;;;;;;6228605;28;20511;-81
2023/03/15 10:55:44;;;;;;;5.07;1.63;;;;;;;;;;6242515;28;20082;-81
2023/03/15 10:58:47;;;;;;;7.97;3.50;;;;;;;;;;6243717;28;20256;-81
2023/03/15 11:01:49;;;;;;;6.50;1.77;;;;;;;;;;6245080;28;20049;-80
2023/03/15 11:04:50;;;;;;;;;;;;;;;;;;6242263;28;20033;-80
2023/03/15 11:07:56;;;;;;;3.25;1.40;;;;;;;;;;6244888;28;19935;-80
2023/03/15 11:10:57;;;;;;;6.13;1.70;;;;;;;;;;6243653;28;20017;-80
2023/03/15 11:13:59;;;;;;;2.70;1.73;;;;;;;;;;6240702;28;20028;-81
2023/03/15 11:17:01;;;;;;;4.72;2.03;;;;;;;;;;6239113;28;20026;-81
2023/03/15 11:20:12;;;;;;;8.63;2.97;;;;;;;;;;6243365;28;20025;-81
2023/03/15 11:23:14;;;;;;;12.48;4.45;;;;;;;;;;6245134;28;20024;-81
2023/03/15 11:26:16;;;;;;;9.70;4.60;;;;;;;;;;6244495;28;20068;-80
2023/03/15 11:29:25;;;;;;;10.63;3.92;;;;;;;;;;6242560;28;20104;-75
2023/03/15 11:32:28;;;;;;;6.25;2.15;;;;;;;;;;6244496;28;20529;-80
2023/03/15 11:35:32;;;;;;;8.98;2.45;;;;;;;;;;6235021;28;20021;-79
2023/03/15 11:38:34;;;;;;;6.22;2.00;;;;;;;;;;6243918;28;20021;-81
2023/03/15 11:41:34;;;;;;;;;;;;;;;;;;6243820;28;20049;-80
2023/03/15 11:44:43;;;;;;;8.65;2.92;;;;;;;;;;6241941;28;19912;-80
2023/03/15 11:47:49;;;;;;;4.93;1.90;;;;;;;;;;6236349;28;20029;-81
2023/03/15 11:50:53;;;;;;;9.75;2.33;;;;;;;;;;6237099;28;20064;-80
2023/03/15 11:54:05;;;;;;;12.02;3.53;;;;;;;;;;6244251;28;20042;-80
2023/03/15 11:57:26;;;;;;;4.43;1.92;;;;;;;;;;6246236;28;20456;-81
2023/03/15 12:00:35;;;;;;;3.17;1.67;;;;;;;;;;6223331;28;20025;-81
2023/03/15 12:03:37;;;;;;;9.63;2.75;;;;;;;;;;6249622;28;20040;-81
2023/03/15 12:06:38;;;;;;;5.57;1.90;;;;;;;;;;6248550;28;20391;-81
2023/03/15 12:09:39;;;;;;;5.27;1.90;;;;;;;;;;6244685;28;20100;-80
2023/03/15 12:12:44;;;;;;;6.15;2.30;;;;;;;;;;6237748;28;20029;-80
2023/03/15 12:15:45;;;;;;;4.25;1.95;;;;;;;;;;6247355;28;20026;-81
2023/03/15 12:18:45;;;;;;;4.97;2.07;;;;;;;;;;6246962;28;20021;-81
2023/03/15 12:21:47;;;;;;;6.77;1.97;;;;;;;;;;6250012;28;20017;-81
2023/03/15 12:24:48;;;;;;;5.18;1.65;;;;;;;;;;6244713;28;20060;-80
2023/03/15 12:27:52;;;;;;;4.47;1.90;;;;;;;;;;6248640;28;20021;-79
2023/03/15 12:30:55;;;;;;;5.72;1.60;;;;;;;;;;6246896;28;20048;-81
2023/03/15 12:33:57;;;;;;;6.40;2.17;;;;;;;;;;6244197;28;20028;-80
2023/03/15 12:37:03;;;;;;;4.10;2.08;;;;;;;;;;6238308;28;20024;-81
2023/03/15 12:40:26;;;;;;;12.07;2.97;;;;;;;;;;6246712;28;20005;-81
2023/03/15 12:43:41;;;;;;;8.82;2.20;;;;;;;;;;6224788;28;20519;-81
2023/03/15 12:46:42;;;;;;;5.45;1.77;;;;;;;;;;6248262;28;20176;-80
2023/03/15 12:49:43;;;;;;;6.05;2.17;;;;;;;;;;6245772;28;20036;-80
2023/03/15 12:52:44;;;;;;;5.90;1.98;;;;;;;;;;6247747;28;20053;-80
2023/03/15 12:55:44;;;;;;;6.23;2.43;;;;;;;;;;6247286;28;20798;-81
2023/03/15 12:58:45;;;;;;;5.87;2.03;;;;;;;;;;6232795;28;20018;-81
2023/03/15 13:01:46;;;;;;;17.08;3.80;;;;;;;;;;6238555;28;20041;-81
2023/03/15 13:04:48;;;;;;;6.17;2.87;;;;;;;;;;6247721;28;20164;-81
2023/03/15 13:08:09;;;;;;;4.45;2.38;;;;;;;;;;6246759;28;20075;-81
2023/03/15 13:11:12;;;;;;;4.10;1.98;;;;;;;;;;6244266;28;20047;-80
2023/03/15 13:14:32;;;;;;;5.05;2.33;;;;;;;;;;6247837;28;20112;-81
2023/03/15 13:17:55;;;;;;;9.70;3.20;;;;;;;;;;6242749;28;20049;-81
2023/03/15 13:21:05;;;;;;;4.65;2.45;;;;;;;;;;6245881;28;20020;-81
2023/03/15 13:24:10;;;;;;;7.03;2.35;;;;;;;;;;6225826;28;20118;-81
2023/03/15 13:27:33;;;;;;;12.73;2.65;;;;;;;;;;6243337;28;20380;-81
2023/03/15 13:30:36;;;;;;;5.53;2.60;;;;;;;;;;6242861;28;20032;-81
2023/03/15 13:33:37;;;;;;;8.63;3.28;;;;;;;;;;6245535;28;20471;-80
2023/03/15 13:36:39;;;;;;;11.77;3.10;;;;;;;;;;6227223;28;20108;-80
2023/03/15 13:39:51;;;;;;;18.60;8.70;;;;;;;;;;6245962;28;20028;-81
2023/03/15 13:42:51;;;;;;;9.95;5.30;;;;;;;;;;6245674;28;20033;-81
2023/03/15 13:45:53;;;;;;;8.13;3.13;;;;;;;;;;6243599;28;20111;-80
2023/03/15 13:48:55;;;;;;;8.15;3.40;;;;;;;;;;6241602;28;20021;-81
2023/03/15 13:51:56;;;;;;;10.80;3.42;;;;;;;;;;6244776;28;20041;-80
2023/03/15 13:54:57;;;;;;;11.88;3.67;;;;;;;;;;6243802;28;20037;-81
2023/03/15 13:57:59;;;;;;;7.03;3.55;;;;;;;;;;6246264;28;20528;-81
2023/03/15 14:00:59;;;;;;;;;;;;;;;;;;6241466;28;20096;-81
2023/03/15 14:04:04;;;;;;;8.13;3.67;;;;;;;;;;6243028;28;19943;-80
2023/03/15 14:07:17;;;;;;;12.93;3.83;;;;;;;;;;6229629;28;20471;-81
2023/03/15 14:10:17;;;;;;;10.23;3.45;;;;;;;;;;6228035;28;20025;-82
2023/03/15 14:13:28;;;;;;;6.53;3.47;;;;;;;;;;6245721;28;20101;-81
2023/03/15 14:16:46;;;;;;;7.85;2.55;;;;;;;;;;6243376;28;20018;-81
2023/03/15 14:19:54;;;;;;;5.72;2.47;;;;;;;;;;6245773;28;20017;-80
2023/03/15 14:23:01;;;;;;;8.00;3.35;;;;;;;;;;6247613;28;20018;-81
2023/03/15 14:26:05;;;;;;;10.95;3.53;;;;;;;;;;6236349;28;20030;-81
2023/03/15 14:29:10;;;;;;;11.32;3.25;;;;;;;;;;6232303;28;20087;-80
2023/03/15 14:32:22;;;;;;;6.43;2.70;;;;;;;;;;6228500;28;20021;-80
2023/03/15 14:35:23;;;;;;;10.57;3.35;;;;;;;;;;6233695;28;20030;-81
2023/03/15 14:38:24;;;;;;;6.40;2.05;;;;;;;;;;6230770;28;20014;-81
2023/03/15 14:41:32;;;;;;;5.03;2.10;;;;;;;;;;6232612;28;20393;-81
2023/03/15 14:44:32;;;;;;;6.30;2.53;;;;;;;;;;6226457;28;20065;-80
2023/03/15 14:47:35;;;;;;;10.27;4.30;;;;;;;;;;6229436;28;20021;-81
2023/03/15 14:50:36;;;;;;;7.50;2.22;;;;;;;;;;6246388;28;20059;-79
2023/03/15 14:53:36;;;;;;;11.40;3.72;;;;;;;;;;6246434;28;20132;-79
2023/03/15 14:56:36;;;;;;;8.23;2.10;;;;;;;;;;6234409;28;20018;-81
2023/03/15 14:59:37;;;;;;;8.40;2.47;;;;;;;;;;6239856;28;20021;-80
2023/03/15 15:02:37;;;;;;;8.20;2.57;;;;;;;;;;6245945;28;20055;-80
2023/03/15 15:05:37;;;;;;;5.37;2.67;;;;;;;;;;6251522;28;20061;-79
2023/03/15 15:08:38;;;;;;;6.80;2.85;;;;;;;;;;6246313;28;20025;-80
2023/03/15 15:11:39;;;;;;;15.45;3.17;;;;;;;;;;6246913;28;20029;-79
2023/03/15 15:14:41;;;;;;;11.68;2.50;;;;;;;;;;6239561;28;20513;-78
2023/03/15 15:17:41;;;;;;;14.38;3.50;;;;;;;;;;6241756;28;20059;-81
2023/03/15 15:20:42;;;;;;;6.33;2.70;;;;;;;;;;6242294;28;20017;-79
2023/03/15 15:23:43;;;;;;;8.43;3.73;;;;;;;;;;6240953;28;20026;-80
2023/03/15 15:26:44;;;;;;;11.32;4.32;;;;;;;;;;6218408;28;20027;-82
2023/03/15 15:29:45;;;;;;;13.02;4.07;;;;;;;;;;6223279;28;20029;-79
2023/03/15 15:32:45;;;;;;;7.10;3.40;;;;;;;;;;6229036;28;20041;-81
2023/03/15 15:35:45;;;;;;;10.63;3.80;;;;;;;;;;6227942;28;20049;-82
2023/03/15 15:38:45;;;;;;;10.43;4.37;;;;;;;;;;6229123;28;20021;-79
2023/03/15 15:41:46;;;;;;;9.97;2.90;;;;;;;;;;6227533;28;20024;-78
2023/03/15 15:44:46;;;;;;;13.13;3.97;;;;;;;;;;6224675;28;20036;-79
2023/03/15 15:47:46;;;;;;;9.93;4.70;;;;;;;;;;6225925;28;20488;-79
2023/03/15 15:50:46;;;;;;;6.63;3.43;;;;;;;;;;6230859;28;20021;-79
2023/03/15 15:53:46;;;;;;;7.27;2.87;;;;;;;;;;6233220;28;20045;-79
2023/03/15 15:56:49;;;;;;;9.52;4.70;;;;;;;;;;6239198;28;20400;-79
2023/03/15 15:59:49;;;;;;;7.63;4.25;;;;;;;;;;6235235;28;20097;-82
2023/03/15 16:02:53;;;;;;;7.37;2.90;;;;;;;;;;6221373;28;20023;-79
2023/03/15 16:05:53;;;;;;;11.55;3.58;;;;;;;;;;6235622;28;20026;-78
2023/03/15 16:08:54;;;;;;;9.27;3.10;;;;;;;;;;6236746;28;20033;-80
2023/03/15 16:11:54;;;;;;;13.87;5.40;;;;;;;;;;6243539;28;20022;-79
2023/03/15 16:14:54;;;;;;;13.63;3.77;;;;;;;;;;6241376;28;20021;-79
2023/03/15 16:17:54;;;;;;;8.95;3.25;;;;;;;;;;6239463;28;20009;-80
2023/03/15 16:20:55;;;;;;;10.25;4.25;;;;;;;;;;6243467;28;20527;-79
2023/03/15 16:23:58;;;;;;;11.47;4.13;;;;;;;;;;6236793;28;20068;-78
2023/03/15 16:27:00;;;;;;;13.65;5.38;;;;;;;;;;6248003;28;20025;-79
2023/03/15 16:30:01;;;;;;;12.98;6.80;;;;;;;;;;6235039;28;20029;-80
2023/03/15 16:33:01;;;;;;;14.85;7.97;;;;;;;;;;6232220;28;20030;-79
2023/03/15 16:36:02;;;;;;;14.47;6.13;;;;;;;;;;6225683;28;20025;-80
2023/03/15 16:39:02;;;;;;;11.93;4.90;;;;;;;;;;6234753;28;20029;-79
2023/03/15 16:42:03;;;;;;;19.53;7.50;;;;;;;;;;6228894;28;20100;-79
2023/03/15 16:45:10;;;;;;;13.40;7.37;;;;;;;;;;6241338;28;20168;-80
2023/03/15 16:48:14;;;;;;;20.45;10.27;;;;;;;;;;6244853;28;20017;-81
2023/03/15 16:51:15;;;;;;;20.67;8.80;;;;;;;;;;6243356;28;20380;-77
2023/03/15 16:54:15;;;;;;;20.43;10.83;;;;;;;;;;6232564;28;20042;-80
2023/03/15 16:57:20;;;;;;;15.67;10.07;;;;;;;;;;6226256;28;20534;-80
2023/03/15 17:00:21;;;;;;;29.70;10.65;;;;;;;;;;6232642;28;20026;-79
2023/03/15 17:03:21;;;;;;;20.63;9.97;;;;;;;;;;6220987;28;20391;-79
2023/03/15 17:06:22;;;;;;;23.27;11.53;;;;;;;;;;6235835;28;20025;-78
2023/03/15 17:09:22;;;;;;;34.60;16.40;;;;;;;;;;6216808;28;20566;-79
2023/03/15 17:12:27;;;;;;;79.10;41.70;;;;;;;;;;6232154;28;20022;-79
2023/03/15 17:15:28;;;;;;;81.50;52.20;;;;;;;;;;6245973;28;20029;-79
2023/03/15 17:18:29;;;;;;;69.20;40.63;;;;;;;;;;6237091;28;20029;-79
2023/03/15 17:21:30;;;;;;;108.38;56.58;;;;;;;;;;6234219;28;20072;-79
2023/03/15 17:24:32;;;;;;;101.30;52.78;;;;;;;;;;6215452;28;20017;-79
2023/03/15 17:27:34;;;;;;;65.35;33.80;;;;;;;;;;6234102;28;20627;-77
2023/03/15 17:30:36;;;;;;;66.60;30.77;;;;;;;;;;6230490;28;20025;-80
2023/03/15 17:33:36;;;;;;;78.45;35.47;;;;;;;;;;6235842;28;20385;-80
2023/03/15 17:36:37;;;;;;;45.00;24.43;;;;;;;;;;6237043;28;20036;-79
2023/03/15 17:39:37;;;;;;;53.03;24.63;;;;;;;;;;6242004;28;20030;-76
2023/03/15 17:42:38;;;;;;;35.30;18.93;;;;;;;;;;6233581;28;20036;-76
2023/03/15 17:45:40;;;;;;;39.33;20.77;;;;;;;;;;6240436;28;20025;-79
2023/03/15 17:48:40;;;;;;;51.35;26.45;;;;;;;;;;6244309;28;20658;-80
2023/03/15 17:51:40;;;;;;;62.87;32.83;;;;;;;;;;6241643;28;20050;-79
2023/03/15 17:54:41;;;;;;;63.10;31.03;;;;;;;;;;6234704;28;20030;-78
2023/03/15 17:57:41;;;;;;;60.88;29.17;;;;;;;;;;6237354;28;20075;-78
2023/03/15 18:00:42;;;;;;;55.53;22.17;;;;;;;;;;6237696;28;20044;-78
2023/03/15 18:03:44;;;;;;;30.77;14.48;;;;;;;;;;6211043;28;20034;-79
2023/03/15 18:06:44;;;;;;;40.88;15.77;;;;;;;;;;6232755;28;20105;-79